createdAt,value
2018-12-15T00:00:46.021Z,17.6
2018-12-15T00:01:46.436Z,17.59
2018-12-15T00:02:46.361Z,17.54
2018-12-15T00:03:46.190Z,17.59
2018-12-15T00:04:45.918Z,17.56
2018-12-15T00:05:46.027Z,17.57
2018-12-15T00:06:46.047Z,17.56
2018-12-15T00:07:46.049Z,17.57
2018-12-15T00:08:46.150Z,17.56
2018-12-15T00:09:45.940Z,17.56
2018-12-15T00:10:46.140Z,17.56
2018-12-15T00:11:46.017Z,17.54
2018-12-15T00:12:46.410Z,17.54
2018-12-15T00:13:46.187Z,17.52
2018-12-15T00:14:46.034Z,17.53
2018-12-15T00:15:45.814Z,17.53
2018-12-15T00:16:46.116Z,17.53
2018-12-15T00:17:46.349Z,17.52
2018-12-15T00:18:45.994Z,17.52
2018-12-15T00:19:46.013Z,17.52
2018-12-15T00:20:46.089Z,17.52
2018-12-15T00:21:45.924Z,17.5
2018-12-15T00:22:46.298Z,17.5
2018-12-15T00:23:46.265Z,17.52
2018-12-15T00:24:46.106Z,17.49
2018-12-15T00:25:46.102Z,17.49
2018-12-15T00:26:46.004Z,17.5
2018-12-15T00:27:45.981Z,17.49
2018-12-15T00:28:46.032Z,17.5
2018-12-15T00:29:46.108Z,17.49
2018-12-15T00:30:46.399Z,17.49
2018-12-15T00:31:46.065Z,17.49
2018-12-15T00:32:46.304Z,17.48
2018-12-15T00:33:46.255Z,17.49
2018-12-15T00:34:46.442Z,17.45
2018-12-15T00:35:46.174Z,17.43
2018-12-15T00:36:46.408Z,17.43
2018-12-15T00:37:46.016Z,17.48
2018-12-15T00:38:46.310Z,17.46
2018-12-15T00:39:46.298Z,17.45
2018-12-15T00:40:46.211Z,17.43
2018-12-15T00:41:46.448Z,17.43
2018-12-15T00:42:45.874Z,17.43
2018-12-15T00:43:46.259Z,17.45
2018-12-15T00:44:46.142Z,17.43
2018-12-15T00:45:46.405Z,17.42
2018-12-15T00:46:46.077Z,17.43
2018-12-15T00:47:46.948Z,17.43
2018-12-15T00:48:46.132Z,17.45
2018-12-15T00:49:46.197Z,17.42
2018-12-15T00:50:46.147Z,17.43
2018-12-15T00:51:46.312Z,17.4
2018-12-15T00:52:46.237Z,17.4
2018-12-15T00:53:45.994Z,17.4
2018-12-15T00:54:46.382Z,17.4
2018-12-15T00:55:46.105Z,17.42
2018-12-15T00:56:46.124Z,17.39
2018-12-15T00:57:46.412Z,17.39
2018-12-15T00:58:45.965Z,17.39
2018-12-15T00:59:46.279Z,17.39
2018-12-15T01:00:46.186Z,17.39
2018-12-15T01:01:46.254Z,17.39
2018-12-15T01:02:46.777Z,17.39
2018-12-15T01:03:45.960Z,17.36
2018-12-15T01:04:46.038Z,17.4
2018-12-15T01:05:46.054Z,17.36
2018-12-15T01:06:46.272Z,17.38
2018-12-15T01:07:46.094Z,17.38
2018-12-15T01:08:46.214Z,17.38
2018-12-15T01:09:46.232Z,17.36
2018-12-15T01:10:45.919Z,17.36
2018-12-15T01:11:46.488Z,17.36
2018-12-15T01:12:45.796Z,17.38
2018-12-15T01:13:45.983Z,17.36
2018-12-15T01:14:46.922Z,17.38
2018-12-15T01:15:45.939Z,17.35
2018-12-15T01:16:46.238Z,17.35
2018-12-15T01:17:45.928Z,17.36
2018-12-15T01:18:46.373Z,17.35
2018-12-15T01:19:46.406Z,17.36
2018-12-15T01:20:46.219Z,17.35
2018-12-15T01:21:46.005Z,17.36
2018-12-15T01:22:46.092Z,17.33
2018-12-15T01:23:46.051Z,17.32
2018-12-15T01:24:46.124Z,17.35
2018-12-15T01:25:46.048Z,17.33
2018-12-15T01:26:46.464Z,17.32
2018-12-15T01:27:46.434Z,17.32
2018-12-15T01:28:45.953Z,17.32
2018-12-15T01:29:45.878Z,17.32
2018-12-15T01:30:46.083Z,17.32
2018-12-15T01:31:46.150Z,17.33
2018-12-15T01:32:46.318Z,17.31
2018-12-15T01:33:46.364Z,17.31
2018-12-15T01:34:46.072Z,17.29
2018-12-15T01:35:46.489Z,17.29
2018-12-15T01:36:45.882Z,17.31
2018-12-15T01:37:46.067Z,17.32
2018-12-15T01:38:46.074Z,17.29
2018-12-15T01:39:46.318Z,17.31
2018-12-15T01:40:46.410Z,17.29
2018-12-15T01:41:46.852Z,17.31
2018-12-15T01:42:45.913Z,17.29
2018-12-15T01:43:45.864Z,17.28
2018-12-15T01:44:46.001Z,17.31
2018-12-15T01:45:45.905Z,17.32
2018-12-15T01:46:46.250Z,17.28
2018-12-15T01:47:46.061Z,17.29
2018-12-15T01:48:45.833Z,17.31
2018-12-15T01:49:46.019Z,17.31
2018-12-15T01:50:46.437Z,17.28
2018-12-15T01:51:46.004Z,17.29
2018-12-15T01:52:46.095Z,17.28
2018-12-15T01:53:46.540Z,17.29
2018-12-15T01:54:45.901Z,17.28
2018-12-15T01:55:46.014Z,17.28
2018-12-15T01:56:45.963Z,17.28
2018-12-15T01:57:46.046Z,17.28
2018-12-15T01:58:45.932Z,17.28
2018-12-15T01:59:46.166Z,17.29
2018-12-15T02:00:45.778Z,17.29
2018-12-15T02:01:46.028Z,17.29
2018-12-15T02:02:45.929Z,17.29
2018-12-15T02:03:46.173Z,17.31
2018-12-15T02:04:46.015Z,17.32
2018-12-15T02:05:45.924Z,17.31
2018-12-15T02:06:46.042Z,17.31
2018-12-15T02:07:46.093Z,17.29
2018-12-15T02:08:46.023Z,17.26
2018-12-15T02:09:46.091Z,17.31
2018-12-15T02:10:45.949Z,17.28
2018-12-15T02:11:46.085Z,17.29
2018-12-15T02:12:45.873Z,17.28
2018-12-15T02:13:45.805Z,17.29
2018-12-15T02:14:46.317Z,17.26
2018-12-15T02:15:46.271Z,17.28
2018-12-15T02:16:46.262Z,17.28
2018-12-15T02:17:46.118Z,17.28
2018-12-15T02:18:46.006Z,17.26
2018-12-15T02:19:46.504Z,17.29
2018-12-15T02:20:46.045Z,17.29
2018-12-15T02:21:45.842Z,17.28
2018-12-15T02:22:45.897Z,17.28
2018-12-15T02:23:46.338Z,17.28
2018-12-15T02:24:46.550Z,17.28
2018-12-15T02:25:46.043Z,17.29
2018-12-15T02:26:46.108Z,17.29
2018-12-15T02:27:45.969Z,17.31
2018-12-15T02:28:45.972Z,17.26
2018-12-15T02:29:46.373Z,17.28
2018-12-15T02:30:47.947Z,17.26
2018-12-15T02:31:46.201Z,17.29
2018-12-15T02:32:46.258Z,17.28
2018-12-15T02:33:45.931Z,17.25
2018-12-15T02:34:46.338Z,17.28
2018-12-15T02:35:46.273Z,17.29
2018-12-15T02:36:46.508Z,17.26
2018-12-15T02:37:45.775Z,17.28
2018-12-15T02:38:46.097Z,17.29
2018-12-15T02:39:46.688Z,17.32
2018-12-15T02:40:46.021Z,17.29
2018-12-15T02:41:47.746Z,17.29
2018-12-15T02:42:46.307Z,17.29
2018-12-15T02:43:45.973Z,17.26
2018-12-15T02:44:46.282Z,17.28
2018-12-15T02:45:46.023Z,17.28
2018-12-15T02:46:45.963Z,17.26
2018-12-15T02:47:46.216Z,17.25
2018-12-15T02:48:46.261Z,17.26
2018-12-15T02:49:46.214Z,17.28
2018-12-15T02:50:46.217Z,17.26
2018-12-15T02:51:46.217Z,17.26
2018-12-15T02:52:46.093Z,17.26
2018-12-15T02:53:46.460Z,17.25
2018-12-15T02:54:45.883Z,17.25
2018-12-15T02:55:46.036Z,17.25
2018-12-15T02:56:46.212Z,17.23
2018-12-15T02:57:46.109Z,17.23
2018-12-15T02:58:46.068Z,17.25
2018-12-15T02:59:46.024Z,17.28
2018-12-15T03:00:46.463Z,17.28
2018-12-15T03:01:46.081Z,17.25
2018-12-15T03:02:46.106Z,17.26
2018-12-15T03:03:45.929Z,17.25
2018-12-15T03:04:45.997Z,17.22
2018-12-15T03:05:46.679Z,17.23
2018-12-15T03:06:45.941Z,17.22
2018-12-15T03:07:46.041Z,17.23
2018-12-15T03:08:45.877Z,17.23
2018-12-15T03:09:45.882Z,17.25
2018-12-15T03:10:46.126Z,17.26
2018-12-15T03:11:45.895Z,17.22
2018-12-15T03:12:46.030Z,17.23
2018-12-15T03:13:45.909Z,17.23
2018-12-15T03:14:46.055Z,17.25
2018-12-15T03:15:46.277Z,17.22
2018-12-15T03:16:46.509Z,17.23
2018-12-15T03:17:49.434Z,17.21
2018-12-15T03:18:45.849Z,17.21
2018-12-15T03:19:46.347Z,17.22
2018-12-15T03:20:45.954Z,17.21
2018-12-15T03:21:46.327Z,17.22
2018-12-15T03:22:46.146Z,17.22
2018-12-15T03:23:46.186Z,17.19
2018-12-15T03:24:46.188Z,17.21
2018-12-15T03:25:46.166Z,17.21
2018-12-15T03:26:46.310Z,17.21
2018-12-15T03:27:46.154Z,17.18
2018-12-15T03:28:46.029Z,17.21
2018-12-15T03:29:46.516Z,17.18
2018-12-15T03:30:46.432Z,17.19
2018-12-15T03:31:46.140Z,17.19
2018-12-15T03:32:45.946Z,17.18
2018-12-15T03:33:45.832Z,17.18
2018-12-15T03:34:45.884Z,17.18
2018-12-15T03:35:45.927Z,17.18
2018-12-15T03:36:46.155Z,17.19
2018-12-15T03:37:46.014Z,17.19
2018-12-15T03:38:46.115Z,17.16
2018-12-15T03:39:45.951Z,17.19
2018-12-15T03:40:46.087Z,17.16
2018-12-15T03:41:45.899Z,17.15
2018-12-15T03:42:45.807Z,17.16
2018-12-15T03:43:46.158Z,17.16
2018-12-15T03:44:46.269Z,17.16
2018-12-15T03:45:46.025Z,17.15
2018-12-15T03:46:46.157Z,17.15
2018-12-15T03:47:46.009Z,17.16
2018-12-15T03:48:45.910Z,17.16
2018-12-15T03:49:46.011Z,17.16
2018-12-15T03:50:46.121Z,17.15
2018-12-15T03:51:46.534Z,17.16
2018-12-15T03:52:46.077Z,17.15
2018-12-15T03:53:46.499Z,17.15
2018-12-15T03:54:46.040Z,17.14
2018-12-15T03:55:46.490Z,17.14
2018-12-15T03:56:45.963Z,17.14
2018-12-15T03:57:46.592Z,17.16
2018-12-15T03:58:46.099Z,17.14
2018-12-15T03:59:45.977Z,17.12
2018-12-15T04:00:45.896Z,17.14
2018-12-15T04:01:45.993Z,17.12
2018-12-15T04:02:46.576Z,17.14
2018-12-15T04:03:46.243Z,17.14
2018-12-15T04:04:46.015Z,17.12
2018-12-15T04:05:46.172Z,17.12
2018-12-15T04:06:45.961Z,17.11
2018-12-15T04:07:46.171Z,17.14
2018-12-15T04:08:46.096Z,17.12
2018-12-15T04:09:46.018Z,17.12
2018-12-15T04:10:46.088Z,17.14
2018-12-15T04:11:46.350Z,17.09
2018-12-15T04:12:46.085Z,17.11
2018-12-15T04:13:45.928Z,17.11
2018-12-15T04:14:45.916Z,17.11
2018-12-15T04:15:46.215Z,17.11
2018-12-15T04:16:46.466Z,17.11
2018-12-15T04:17:46.130Z,17.11
2018-12-15T04:18:46.008Z,17.09
2018-12-15T04:19:45.885Z,17.12
2018-12-15T04:20:46.394Z,17.12
2018-12-15T04:21:46.083Z,17.12
2018-12-15T04:22:45.993Z,17.12
2018-12-15T04:23:46.021Z,17.11
2018-12-15T04:24:46.163Z,17.06
2018-12-15T04:25:46.050Z,17.08
2018-12-15T04:26:46.026Z,17.08
2018-12-15T04:27:45.787Z,17.08
2018-12-15T04:28:46.314Z,17.06
2018-12-15T04:29:46.205Z,17.06
2018-12-15T04:30:46.199Z,17.08
2018-12-15T04:31:46.002Z,17.08
2018-12-15T04:32:45.978Z,17.08
2018-12-15T04:33:45.866Z,17.06
2018-12-15T04:34:45.926Z,17.06
2018-12-15T04:35:46.410Z,17.05
2018-12-15T04:36:45.837Z,17.06
2018-12-15T04:37:46.364Z,17.06
2018-12-15T04:38:46.120Z,17.06
2018-12-15T04:39:46.464Z,17.05
2018-12-15T04:40:45.995Z,17.04
2018-12-15T04:41:45.858Z,17.02
2018-12-15T04:42:46.473Z,17.01
2018-12-15T04:43:45.915Z,17.01
2018-12-15T04:44:46.178Z,17.01
2018-12-15T04:45:46.709Z,16.99
2018-12-15T04:46:45.945Z,16.98
2018-12-15T04:47:46.356Z,17.01
2018-12-15T04:48:46.074Z,17.01
2018-12-15T04:49:46.028Z,17.01
2018-12-15T04:50:45.902Z,17.01
2018-12-15T04:51:45.863Z,17.02
2018-12-15T04:52:46.184Z,17.04
2018-12-15T04:53:46.105Z,17.02
2018-12-15T04:54:45.826Z,17.02
2018-12-15T04:55:45.949Z,17.02
2018-12-15T04:56:46.215Z,17.04
2018-12-15T04:57:46.131Z,17.04
2018-12-15T04:58:46.030Z,17.06
2018-12-15T04:59:46.161Z,17.05
2018-12-15T05:00:46.255Z,17.08
2018-12-15T05:01:46.326Z,17.06
2018-12-15T05:02:46.144Z,17.06
2018-12-15T05:03:45.834Z,17.09
2018-12-15T05:04:45.952Z,17.11
2018-12-15T05:05:45.896Z,17.14
2018-12-15T05:06:46.044Z,17.16
2018-12-15T05:07:46.213Z,17.16
2018-12-15T05:08:46.075Z,17.19
2018-12-15T05:09:45.900Z,17.21
2018-12-15T05:10:46.178Z,17.22
2018-12-15T05:11:46.083Z,17.23
2018-12-15T05:12:45.777Z,17.23
2018-12-15T05:13:46.031Z,17.26
2018-12-15T05:14:46.000Z,17.25
2018-12-15T05:15:45.961Z,17.29
2018-12-15T05:16:45.768Z,17.28
2018-12-15T05:17:45.938Z,17.31
2018-12-15T05:18:46.105Z,17.32
2018-12-15T05:19:45.812Z,17.33
2018-12-15T05:20:45.945Z,17.35
2018-12-15T05:21:45.803Z,17.36
2018-12-15T05:22:45.911Z,17.38
2018-12-15T05:23:46.150Z,17.39
2018-12-15T05:24:45.831Z,17.4
2018-12-15T05:25:46.592Z,17.39
2018-12-15T05:26:45.804Z,17.42
2018-12-15T05:27:46.191Z,17.43
2018-12-15T05:28:45.764Z,17.48
2018-12-15T05:29:45.985Z,17.48
2018-12-15T05:30:45.756Z,17.49
2018-12-15T05:31:46.160Z,17.5
2018-12-15T05:32:46.124Z,17.52
2018-12-15T05:33:46.178Z,17.53
2018-12-15T05:34:46.370Z,17.57
2018-12-15T05:35:46.393Z,17.59
2018-12-15T05:36:46.077Z,17.6
2018-12-15T05:37:46.279Z,17.63
2018-12-15T05:38:46.271Z,17.61
2018-12-15T05:39:46.401Z,17.64
2018-12-15T05:40:46.097Z,17.66
2018-12-15T05:41:45.975Z,17.67
2018-12-15T05:42:46.507Z,17.67
2018-12-15T05:43:45.929Z,17.73
2018-12-15T05:44:45.972Z,17.7
2018-12-15T05:45:45.734Z,17.74
2018-12-15T05:46:45.964Z,17.76
2018-12-15T05:47:45.971Z,17.74
2018-12-15T05:48:46.276Z,17.76
2018-12-15T05:49:45.909Z,17.77
2018-12-15T05:50:45.737Z,17.77
2018-12-15T05:51:45.871Z,17.81
2018-12-15T05:52:46.289Z,17.82
2018-12-15T05:53:46.512Z,17.82
2018-12-15T05:54:46.443Z,17.85
2018-12-15T05:55:46.019Z,17.82
2018-12-15T05:56:45.879Z,17.85
2018-12-15T05:57:45.712Z,17.87
2018-12-15T05:58:46.129Z,17.87
2018-12-15T05:59:45.909Z,17.88
2018-12-15T06:00:46.690Z,17.91
2018-12-15T06:01:46.285Z,17.93
2018-12-15T06:02:45.862Z,17.93
2018-12-15T06:03:46.064Z,17.95
2018-12-15T06:04:45.955Z,17.93
2018-12-15T06:05:46.041Z,17.94
2018-12-15T06:06:46.172Z,17.97
2018-12-15T06:07:45.817Z,17.98
2018-12-15T06:08:46.444Z,18
2018-12-15T06:09:46.078Z,18.01
2018-12-15T06:10:46.165Z,18.01
2018-12-15T06:11:46.353Z,18.01
2018-12-15T06:12:45.744Z,18.04
2018-12-15T06:13:46.110Z,18.04
2018-12-15T06:14:46.324Z,18.05
2018-12-15T06:15:46.568Z,18.04
2018-12-15T06:16:45.886Z,18.05
2018-12-15T06:17:46.065Z,18.08
2018-12-15T06:18:46.467Z,18.07
2018-12-15T06:19:46.055Z,18.07
2018-12-15T06:20:45.974Z,18.08
2018-12-15T06:21:46.288Z,18.09
2018-12-15T06:22:45.973Z,18.11
2018-12-15T06:23:45.796Z,18.12
2018-12-15T06:24:45.817Z,18.12
2018-12-15T06:25:45.814Z,18.12
2018-12-15T06:26:46.246Z,18.13
2018-12-15T06:27:45.660Z,18.15
2018-12-15T06:28:46.247Z,18.15
2018-12-15T06:29:46.065Z,18.18
2018-12-15T06:30:46.164Z,18.16
2018-12-15T06:31:46.225Z,18.19
2018-12-15T06:32:45.818Z,18.19
2018-12-15T06:33:46.688Z,18.19
2018-12-15T06:34:46.150Z,18.21
2018-12-15T06:35:46.101Z,18.18
2018-12-15T06:36:45.965Z,18.22
2018-12-15T06:37:45.842Z,18.23
2018-12-15T06:38:46.537Z,18.23
2018-12-15T06:39:46.921Z,18.23
2018-12-15T06:40:46.245Z,18.23
2018-12-15T06:41:46.388Z,18.23
2018-12-15T06:42:45.831Z,18.28
2018-12-15T06:43:45.885Z,18.26
2018-12-15T06:44:45.856Z,18.28
2018-12-15T06:45:46.141Z,18.28
2018-12-15T06:46:45.815Z,18.28
2018-12-15T06:47:45.844Z,18.29
2018-12-15T06:48:46.298Z,18.29
2018-12-15T06:49:45.792Z,18.3
2018-12-15T06:50:46.230Z,18.3
2018-12-15T06:51:45.965Z,18.32
2018-12-15T06:52:45.974Z,18.33
2018-12-15T06:53:46.042Z,18.33
2018-12-15T06:54:45.733Z,18.33
2018-12-15T06:55:46.125Z,18.36
2018-12-15T06:56:46.112Z,18.35
2018-12-15T06:57:46.000Z,18.37
2018-12-15T06:58:46.081Z,18.37
2018-12-15T06:59:45.802Z,18.36
2018-12-15T07:00:45.939Z,18.37
2018-12-15T07:01:45.621Z,18.37
2018-12-15T07:02:45.927Z,18.4
2018-12-15T07:03:45.776Z,18.39
2018-12-15T07:04:45.800Z,18.4
2018-12-15T07:05:46.217Z,18.4
2018-12-15T07:06:46.058Z,18.43
2018-12-15T07:07:45.916Z,18.43
2018-12-15T07:08:45.773Z,18.43
2018-12-15T07:09:46.103Z,18.44
2018-12-15T07:10:46.054Z,18.47
2018-12-15T07:11:45.910Z,18.43
2018-12-15T07:12:46.132Z,18.44
2018-12-15T07:13:46.146Z,18.46
2018-12-15T07:14:46.183Z,18.49
2018-12-15T07:15:45.839Z,18.47
2018-12-15T07:16:46.464Z,18.49
2018-12-15T07:17:46.105Z,18.49
2018-12-15T07:18:46.279Z,18.5
2018-12-15T07:19:46.040Z,18.5
2018-12-15T07:20:45.867Z,18.51
2018-12-15T07:21:45.877Z,18.54
2018-12-15T07:22:46.148Z,18.54
2018-12-15T07:23:46.247Z,18.54
2018-12-15T07:24:45.906Z,18.56
2018-12-15T07:25:45.735Z,18.54
2018-12-15T07:26:45.947Z,18.56
2018-12-15T07:27:45.767Z,18.57
2018-12-15T07:28:45.783Z,18.57
2018-12-15T07:29:46.187Z,18.6
2018-12-15T07:30:46.194Z,18.62
2018-12-15T07:31:45.858Z,18.6
2018-12-15T07:32:46.395Z,18.6
2018-12-15T07:33:45.908Z,18.6
2018-12-15T07:34:46.187Z,18.63
2018-12-15T07:35:45.771Z,18.6
2018-12-15T07:36:46.157Z,18.62
2018-12-15T07:37:45.926Z,18.64
2018-12-15T07:38:45.794Z,18.63
2018-12-15T07:39:46.122Z,18.64
2018-12-15T07:40:45.766Z,18.64
2018-12-15T07:41:45.915Z,18.66
2018-12-15T07:42:45.724Z,18.64
2018-12-15T07:43:46.182Z,18.66
2018-12-15T07:44:46.412Z,18.67
2018-12-15T07:45:45.685Z,18.64
2018-12-15T07:46:45.980Z,18.67
2018-12-15T07:47:46.655Z,18.7
2018-12-15T07:48:51.870Z,18.68
2018-12-15T07:49:46.210Z,18.7
2018-12-15T07:50:45.819Z,18.68
2018-12-15T07:51:45.940Z,18.7
2018-12-15T07:52:45.975Z,18.68
2018-12-15T07:53:46.261Z,18.71
2018-12-15T07:54:45.902Z,18.7
2018-12-15T07:55:46.146Z,18.73
2018-12-15T07:56:46.080Z,18.73
2018-12-15T07:57:46.572Z,18.74
2018-12-15T07:58:46.118Z,18.73
2018-12-15T07:59:46.293Z,18.73
2018-12-15T08:00:46.283Z,18.73
2018-12-15T08:01:45.826Z,18.75
2018-12-15T08:02:45.711Z,18.74
2018-12-15T08:03:46.071Z,18.75
2018-12-15T08:04:46.136Z,18.74
2018-12-15T08:05:46.332Z,18.74
2018-12-15T08:06:45.880Z,18.77
2018-12-15T08:07:46.110Z,18.74
2018-12-15T08:08:46.120Z,18.77
2018-12-15T08:09:45.892Z,18.77
2018-12-15T08:10:45.833Z,18.75
2018-12-15T08:11:46.325Z,18.78
2018-12-15T08:12:46.050Z,18.77
2018-12-15T08:13:46.268Z,18.8
2018-12-15T08:14:45.718Z,18.77
2018-12-15T08:15:46.106Z,18.78
2018-12-15T08:16:46.003Z,18.78
2018-12-15T08:17:45.750Z,18.8
2018-12-15T08:18:45.951Z,18.8
2018-12-15T08:19:45.659Z,18.78
2018-12-15T08:20:45.902Z,18.8
2018-12-15T08:21:45.765Z,18.83
2018-12-15T08:22:45.743Z,18.83
2018-12-15T08:23:45.965Z,18.81
2018-12-15T08:24:46.057Z,18.84
2018-12-15T08:25:46.168Z,18.83
2018-12-15T08:26:46.066Z,18.83
2018-12-15T08:27:46.176Z,18.83
2018-12-15T08:28:45.880Z,18.81
2018-12-15T08:29:45.741Z,18.83
2018-12-15T08:30:46.111Z,18.83
2018-12-15T08:31:46.352Z,18.83
2018-12-15T08:32:45.785Z,18.84
2018-12-15T08:33:46.168Z,18.84
2018-12-15T08:34:45.909Z,18.84
2018-12-15T08:35:45.944Z,18.83
2018-12-15T08:36:45.723Z,18.84
2018-12-15T08:37:45.819Z,18.84
2018-12-15T08:38:45.776Z,18.85
2018-12-15T08:39:45.814Z,18.84
2018-12-15T08:40:45.844Z,18.85
2018-12-15T08:41:45.793Z,18.83
2018-12-15T08:42:45.896Z,18.85
2018-12-15T08:43:46.068Z,18.84
2018-12-15T08:44:46.007Z,18.85
2018-12-15T08:45:45.871Z,18.87
2018-12-15T08:46:45.678Z,18.88
2018-12-15T08:47:46.039Z,18.85
2018-12-15T08:48:45.775Z,18.87
2018-12-15T08:49:45.719Z,18.87
2018-12-15T08:50:45.972Z,18.84
2018-12-15T08:51:45.938Z,18.88
2018-12-15T08:52:46.042Z,18.88
2018-12-15T08:53:45.884Z,18.88
2018-12-15T08:54:46.203Z,18.9
2018-12-15T08:55:45.785Z,18.88
2018-12-15T08:56:46.159Z,18.88
2018-12-15T08:57:45.700Z,18.88
2018-12-15T08:58:46.104Z,18.88
2018-12-15T08:59:45.683Z,18.88
2018-12-15T09:00:46.218Z,18.88
2018-12-15T09:01:45.700Z,18.88
2018-12-15T09:02:45.890Z,18.92
2018-12-15T09:03:46.124Z,18.91
2018-12-15T09:04:45.709Z,18.9
2018-12-15T09:05:45.850Z,18.92
2018-12-15T09:06:46.130Z,18.9
2018-12-15T09:07:45.918Z,18.9
2018-12-15T09:08:46.418Z,18.91
2018-12-15T09:09:46.703Z,18.91
2018-12-15T09:10:46.149Z,18.94
2018-12-15T09:11:46.099Z,18.91
2018-12-15T09:12:46.171Z,18.92
2018-12-15T09:13:46.063Z,18.94
2018-12-15T09:14:46.139Z,18.92
2018-12-15T09:15:45.778Z,18.94
2018-12-15T09:16:46.298Z,18.92
2018-12-15T09:17:45.919Z,18.94
2018-12-15T09:18:46.217Z,18.94
2018-12-15T09:19:45.744Z,18.97
2018-12-15T09:20:45.907Z,18.95
2018-12-15T09:21:45.801Z,18.95
2018-12-15T09:22:45.896Z,18.98
2018-12-15T09:23:45.860Z,18.97
2018-12-15T09:24:45.882Z,18.97
2018-12-15T09:25:46.205Z,18.97
2018-12-15T09:26:45.785Z,18.97
2018-12-15T09:27:46.201Z,18.98
2018-12-15T09:28:45.894Z,18.97
2018-12-15T09:29:46.131Z,18.97
2018-12-15T09:30:45.667Z,18.98
2018-12-15T09:31:45.854Z,18.98
2018-12-15T09:32:46.358Z,18.99
2018-12-15T09:33:46.048Z,18.99
2018-12-15T09:34:45.860Z,19.01
2018-12-15T09:35:45.667Z,19.01
2018-12-15T09:36:45.805Z,18.99
2018-12-15T09:37:45.902Z,18.99
2018-12-15T09:38:45.859Z,19.01
2018-12-15T09:39:46.041Z,18.99
2018-12-15T09:40:45.888Z,19.01
2018-12-15T09:41:46.126Z,19.03
2018-12-15T09:42:45.851Z,19.01
2018-12-15T09:43:45.829Z,19.02
2018-12-15T09:44:46.354Z,19.01
2018-12-15T09:45:45.773Z,19.03
2018-12-15T09:46:46.058Z,19.01
2018-12-15T09:47:46.787Z,19.02
2018-12-15T09:48:45.881Z,19.02
2018-12-15T09:49:46.199Z,19.05
2018-12-15T09:50:45.659Z,19.06
2018-12-15T09:51:45.935Z,19.02
2018-12-15T09:52:45.792Z,19.05
2018-12-15T09:53:45.799Z,19.06
2018-12-15T09:54:46.394Z,19.06
2018-12-15T09:55:45.891Z,19.05
2018-12-15T09:56:45.893Z,19.06
2018-12-15T09:57:45.877Z,19.03
2018-12-15T09:58:46.217Z,19.08
2018-12-15T09:59:45.826Z,19.06
2018-12-15T10:00:45.696Z,19.09
2018-12-15T10:01:45.912Z,19.08
2018-12-15T10:02:46.733Z,19.11
2018-12-15T10:03:45.693Z,19.12
2018-12-15T10:04:46.200Z,19.12
2018-12-15T10:05:45.640Z,19.13
2018-12-15T10:06:45.788Z,19.12
2018-12-15T10:07:45.852Z,19.12
2018-12-15T10:08:46.808Z,19.15
2018-12-15T10:09:45.662Z,19.18
2018-12-15T10:10:45.722Z,19.19
2018-12-15T10:11:45.888Z,19.19
2018-12-15T10:12:45.936Z,19.19
2018-12-15T10:13:45.764Z,19.2
2018-12-15T10:14:46.077Z,19.2
2018-12-15T10:15:45.691Z,19.22
2018-12-15T10:16:46.219Z,19.23
2018-12-15T10:17:46.023Z,19.25
2018-12-15T10:18:45.879Z,19.26
2018-12-15T10:19:45.865Z,19.25
2018-12-15T10:20:45.741Z,19.26
2018-12-15T10:21:46.268Z,19.23
2018-12-15T10:22:46.155Z,19.26
2018-12-15T10:23:45.753Z,19.26
2018-12-15T10:24:46.118Z,19.29
2018-12-15T10:25:45.797Z,19.27
2018-12-15T10:26:46.091Z,19.3
2018-12-15T10:27:46.264Z,19.29
2018-12-15T10:28:46.105Z,19.32
2018-12-15T10:29:45.846Z,19.32
2018-12-15T10:30:45.735Z,19.33
2018-12-15T10:31:46.118Z,19.32
2018-12-15T10:32:46.048Z,19.33
2018-12-15T10:33:46.144Z,19.33
2018-12-15T10:34:46.033Z,19.35
2018-12-15T10:35:46.304Z,19.33
2018-12-15T10:36:46.144Z,19.36
2018-12-15T10:37:45.758Z,19.35
2018-12-15T10:38:46.114Z,19.36
2018-12-15T10:39:45.739Z,19.39
2018-12-15T10:40:46.051Z,19.39
2018-12-15T10:41:45.621Z,19.37
2018-12-15T10:42:45.862Z,19.4
2018-12-15T10:43:45.632Z,19.39
2018-12-15T10:44:46.227Z,19.39
2018-12-15T10:45:45.788Z,19.4
2018-12-15T10:46:45.737Z,19.39
2018-12-15T10:47:45.922Z,19.39
2018-12-15T10:48:45.785Z,19.37
2018-12-15T10:49:46.074Z,19.36
2018-12-15T10:50:45.888Z,19.35
2018-12-15T10:51:45.737Z,19.37
2018-12-15T10:52:46.297Z,19.37
2018-12-15T10:53:46.203Z,19.37
2018-12-15T10:54:45.624Z,19.35
2018-12-15T10:55:46.126Z,19.37
2018-12-15T10:56:46.225Z,19.36
2018-12-15T10:57:46.710Z,19.39
2018-12-15T10:58:45.884Z,19.39
2018-12-15T10:59:46.376Z,19.4
2018-12-15T11:00:45.900Z,19.43
2018-12-15T11:01:45.781Z,19.42
2018-12-15T11:02:46.177Z,19.45
2018-12-15T11:03:46.584Z,19.43
2018-12-15T11:04:45.771Z,19.45
2018-12-15T11:05:45.731Z,19.43
2018-12-15T11:06:46.189Z,19.46
2018-12-15T11:07:46.182Z,19.46
2018-12-15T11:08:45.687Z,19.47
2018-12-15T11:09:45.738Z,19.47
2018-12-15T11:10:46.096Z,19.49
2018-12-15T11:11:46.323Z,19.47
2018-12-15T11:12:45.743Z,19.47
2018-12-15T11:13:46.625Z,19.49
2018-12-15T11:14:45.821Z,19.45
2018-12-15T11:15:45.975Z,19.49
2018-12-15T11:16:46.252Z,19.46
2018-12-15T11:17:45.725Z,19.46
2018-12-15T11:18:45.839Z,19.46
2018-12-15T11:19:45.828Z,19.47
2018-12-15T11:20:46.000Z,19.46
2018-12-15T11:21:45.878Z,19.45
2018-12-15T11:22:45.680Z,19.42
2018-12-15T11:23:46.151Z,19.43
2018-12-15T11:24:46.249Z,19.45
2018-12-15T11:25:45.850Z,19.42
2018-12-15T11:26:46.149Z,19.45
2018-12-15T11:27:45.869Z,19.4
2018-12-15T11:28:46.119Z,19.39
2018-12-15T11:29:46.677Z,19.42
2018-12-15T11:30:46.204Z,19.42
2018-12-15T11:31:46.160Z,19.43
2018-12-15T11:32:45.729Z,19.43
2018-12-15T11:33:45.805Z,19.46
2018-12-15T11:34:46.175Z,19.45
2018-12-15T11:35:45.733Z,19.45
2018-12-15T11:36:46.358Z,19.46
2018-12-15T11:37:45.843Z,19.46
2018-12-15T11:38:45.840Z,19.45
2018-12-15T11:39:45.924Z,19.47
2018-12-15T11:40:45.651Z,19.46
2018-12-15T11:41:45.852Z,19.46
2018-12-15T11:42:45.853Z,19.49
2018-12-15T11:43:45.935Z,19.47
2018-12-15T11:44:45.975Z,19.49
2018-12-15T11:45:45.850Z,19.47
2018-12-15T11:46:45.954Z,19.49
2018-12-15T11:47:45.826Z,19.53
2018-12-15T11:48:45.777Z,19.49
2018-12-15T11:49:46.021Z,19.49
2018-12-15T11:50:45.791Z,19.5
2018-12-15T11:51:45.871Z,19.5
2018-12-15T11:52:45.755Z,19.49
2018-12-15T11:53:45.874Z,19.52
2018-12-15T11:54:46.153Z,19.49
2018-12-15T11:55:46.039Z,19.52
2018-12-15T11:56:45.740Z,19.52
2018-12-15T11:57:46.034Z,19.52
2018-12-15T11:58:45.867Z,19.53
2018-12-15T11:59:46.382Z,19.56
2018-12-15T12:00:45.820Z,19.56
2018-12-15T12:01:45.999Z,19.58
2018-12-15T12:02:46.066Z,19.57
2018-12-15T12:03:45.781Z,19.57
2018-12-15T12:04:45.714Z,19.6
2018-12-15T12:05:45.907Z,19.6
2018-12-15T12:06:46.048Z,19.58
2018-12-15T12:07:45.854Z,19.6
2018-12-15T12:08:45.948Z,19.61
2018-12-15T12:09:45.852Z,19.61
2018-12-15T12:10:45.788Z,19.61
2018-12-15T12:11:46.362Z,19.61
2018-12-15T12:12:46.244Z,19.6
2018-12-15T12:13:45.963Z,19.61
2018-12-15T12:14:46.206Z,19.61
2018-12-15T12:15:45.896Z,19.63
2018-12-15T12:16:45.979Z,19.63
2018-12-15T12:17:46.111Z,19.61
2018-12-15T12:18:46.580Z,19.61
2018-12-15T12:19:50.772Z,19.64
2018-12-15T12:20:45.588Z,19.61
2018-12-15T12:21:46.004Z,19.64
2018-12-15T12:22:45.890Z,19.65
2018-12-15T12:23:45.986Z,19.64
2018-12-15T12:24:45.580Z,19.58
2018-12-15T12:25:45.926Z,19.6
2018-12-15T12:26:45.815Z,19.6
2018-12-15T12:27:46.177Z,19.64
2018-12-15T12:28:45.689Z,19.63
2018-12-15T12:29:45.849Z,19.64
2018-12-15T12:30:45.623Z,19.61
2018-12-15T12:31:45.771Z,19.61
2018-12-15T12:32:46.255Z,19.6
2018-12-15T12:33:45.764Z,19.65
2018-12-15T12:34:45.756Z,19.64
2018-12-15T12:35:45.687Z,19.63
2018-12-15T12:36:46.058Z,19.63
2018-12-15T12:37:46.505Z,19.64
2018-12-15T12:38:45.756Z,19.64
2018-12-15T12:39:45.545Z,19.64
2018-12-15T12:40:45.691Z,19.64
2018-12-15T12:41:46.078Z,19.65
2018-12-15T12:42:46.033Z,19.64
2018-12-15T12:43:45.874Z,19.65
2018-12-15T12:44:45.547Z,19.63
2018-12-15T12:45:45.816Z,19.67
2018-12-15T12:46:45.997Z,19.64
2018-12-15T12:47:45.820Z,19.63
2018-12-15T12:48:46.515Z,19.64
2018-12-15T12:49:45.946Z,19.63
2018-12-15T12:50:45.747Z,19.63
2018-12-15T12:51:45.786Z,19.6
2018-12-15T12:52:46.069Z,19.63
2018-12-15T12:53:46.680Z,19.6
2018-12-15T12:54:46.052Z,19.58